Time;durP1;ratioP1;P1;durP2;ratioP2;P2;SDS_P1;SDS_P2;PMS_P1;PMS_P2;Temp;Humidity;BMP_temperature;BMP_pressure;BME280_temperature;BME280_humidity;BME280_pressure;Samples;Min_cycle;Max_cycle;Signal;HPM_P1;HPM_P2
2023/09/29 00:01:03;;;;;;;17.03;10.23;;;;;;;15.44;100.00;101020.31;6028128;28;20034;-65
2023/09/29 00:03:59;;;;;;;18.08;11.45;;;;;;;15.35;100.00;101039.22;6020662;28;20080;-64
2023/09/29 00:06:55;;;;;;;19.50;12.20;;;;;;;15.29;100.00;101037.19;6026359;28;20039;-64
2023/09/29 00:09:50;;;;;;;24.38;11.98;;;;;;;15.37;100.00;101042.53;6021794;28;20042;-64
2023/09/29 00:12:45;;;;;;;26.60;13.70;;;;;;;15.39;100.00;101033.34;6027950;28;20030;-64
2023/09/29 00:15:41;;;;;;;24.60;12.55;;;;;;;15.40;100.00;101031.50;6026809;28;20505;-64
2023/09/29 00:18:37;;;;;;;21.43;12.17;;;;;;;15.42;100.00;101033.00;6027083;28;20041;-64
2023/09/29 00:21:32;;;;;;;19.60;12.80;;;;;;;15.45;100.00;101045.19;6027691;28;20073;-64
2023/09/29 00:24:27;;;;;;;20.97;13.77;;;;;;;15.38;100.00;101030.84;6027576;28;20030;-64
2023/09/29 00:27:22;;;;;;;27.80;12.50;;;;;;;15.37;100.00;101027.34;6024256;28;20053;-64
2023/09/29 00:30:18;;;;;;;23.17;12.70;;;;;;;15.30;100.00;101017.50;6027375;28;20030;-64
2023/09/29 00:33:13;;;;;;;20.73;12.45;;;;;;;15.41;100.00;101025.16;6027189;28;20034;-64
2023/09/29 00:36:09;;;;;;;20.85;13.30;;;;;;;15.36;100.00;101014.97;6026673;28;20114;-64
2023/09/29 00:39:08;;;;;;;21.30;12.88;;;;;;;15.38;100.00;101034.34;6026709;28;20066;-64
2023/09/29 00:42:06;;;;;;;21.33;12.30;;;;;;;15.46;100.00;101031.69;6020095;28;20031;-64
2023/09/29 00:45:03;;;;;;;20.85;12.70;;;;;;;15.57;100.00;101041.22;6023606;28;20487;-64
2023/09/29 00:48:07;;;;;;;19.52;12.15;;;;;;;15.53;100.00;101017.66;6025906;28;20085;-64
2023/09/29 00:51:02;;;;;;;17.83;11.13;;;;;;;15.39;100.00;101022.66;6019484;28;20034;-64
2023/09/29 00:53:57;;;;;;;17.90;11.05;;;;;;;15.29;100.00;101010.47;6022445;28;20033;-64
2023/09/29 00:56:53;;;;;;;18.38;10.88;;;;;;;15.39;100.00;101017.31;6032459;28;20126;-64
2023/09/29 00:59:51;;;;;;;17.58;10.20;;;;;;;15.41;100.00;101022.47;6024860;28;20084;-64
2023/09/29 01:02:48;;;;;;;16.23;10.55;;;;;;;15.30;100.00;101023.66;6025816;28;20034;-64
2023/09/29 01:05:46;;;;;;;16.90;10.05;;;;;;;15.21;100.00;100999.81;6026332;28;20027;-64
2023/09/29 01:08:42;;;;;;;16.35;10.68;;;;;;;15.29;100.00;100997.97;6019320;28;20061;-64
2023/09/29 01:11:43;;;;;;;22.52;14.35;;;;;;;15.17;100.00;101007.31;6025901;28;20037;-65
2023/09/29 01:14:39;;;;;;;30.50;17.60;;;;;;;15.22;100.00;100999.63;6026495;28;20037;-64
2023/09/29 01:17:35;;;;;;;26.13;15.95;;;;;;;15.26;100.00;100995.63;6024586;28;20034;-64
2023/09/29 01:20:31;;;;;;;28.98;17.20;;;;;;;15.29;100.00;100989.09;6026342;28;20034;-64
2023/09/29 01:23:31;;;;;;;34.28;20.02;;;;;;;15.33;100.00;100985.91;6026393;28;20061;-64
2023/09/29 01:26:27;;;;;;;32.78;19.38;;;;;;;15.39;100.00;100993.25;6021190;28;20432;-64
2023/09/29 01:29:22;;;;;;;34.77;20.47;;;;;;;15.47;100.00;100990.59;6025410;28;20037;-64
2023/09/29 01:32:18;;;;;;;34.97;18.45;;;;;;;15.62;100.00;101003.28;6026202;28;20030;-64
2023/09/29 01:35:16;;;;;;;35.63;20.53;;;;;;;15.65;100.00;100989.56;6025856;28;20377;-64
2023/09/29 01:38:12;;;;;;;36.30;19.52;;;;;;;15.72;100.00;101006.56;6024881;28;20038;-64
2023/09/29 01:41:07;;;;;;;31.27;17.87;;;;;;;15.78;100.00;101004.06;6026086;28;20061;-64
2023/09/29 01:44:03;;;;;;;30.63;18.30;;;;;;;15.85;100.00;101004.19;6026168;28;20030;-64
2023/09/29 01:46:59;;;;;;;30.77;17.90;;;;;;;15.77;100.00;100989.00;6017795;28;20103;-64
2023/09/29 01:49:54;;;;;;;37.38;18.67;;;;;;;15.88;100.00;101002.00;6025505;28;20038;-64
2023/09/29 01:52:50;;;;;;;32.17;18.17;;;;;;;15.91;100.00;101009.69;6024176;28;20042;-64
2023/09/29 01:55:46;;;;;;;36.67;19.65;;;;;;;15.77;100.00;101014.91;6029070;28;20489;-64
2023/09/29 01:58:41;;;;;;;29.00;17.43;;;;;;;15.75;100.00;101006.22;6017401;28;20036;-64
2023/09/29 02:01:36;;;;;;;28.13;16.93;;;;;;;15.74;100.00;100993.84;6025636;28;20026;-64
2023/09/29 02:04:32;;;;;;;27.63;16.98;;;;;;;15.65;100.00;101005.59;6025476;28;20442;-63
2023/09/29 02:07:27;;;;;;;31.70;17.63;;;;;;;15.75;100.00;101003.56;6024652;28;20030;-64
2023/09/29 02:10:24;;;;;;;31.30;17.23;;;;;;;15.64;100.00;101003.91;6025860;28;20070;-64
2023/09/29 02:13:19;;;;;;;27.42;16.67;;;;;;;15.70;100.00;101013.94;6025705;28;20030;-64
2023/09/29 02:16:15;;;;;;;29.00;15.83;;;;;;;15.66;100.00;101020.63;6024935;28;20060;-63
2023/09/29 02:19:10;;;;;;;25.05;14.05;;;;;;;15.61;100.00;101001.59;6024785;28;20109;-64
2023/09/29 02:22:06;;;;;;;23.57;13.47;;;;;;;15.73;100.00;101017.13;6024663;28;20034;-64
2023/09/29 02:25:02;;;;;;;20.95;12.13;;;;;;;15.78;100.00;101004.06;6025016;28;20049;-64
2023/09/29 02:27:58;;;;;;;19.60;12.63;;;;;;;15.93;100.00;101012.16;6024931;28;20093;-64
2023/09/29 02:30:54;;;;;;;23.77;12.38;;;;;;;15.95;100.00;101011.00;6024905;28;20037;-64
2023/09/29 02:33:50;;;;;;;19.35;11.70;;;;;;;16.09;100.00;101014.78;6020509;28;20430;-64
2023/09/29 02:36:46;;;;;;;22.75;10.85;;;;;;;16.12;100.00;101002.88;6024185;28;20045;-64
2023/09/29 02:39:41;;;;;;;18.67;10.53;;;;;;;16.13;100.00;101010.75;6029960;28;20034;-64
2023/09/29 02:42:37;;;;;;;18.17;9.40;;;;;;;16.16;100.00;101010.41;6029813;28;20019;-65
2023/09/29 02:45:33;;;;;;;17.88;9.85;;;;;;;16.22;100.00;101015.06;6029499;28;20113;-64
2023/09/29 02:48:28;;;;;;;14.00;8.18;;;;;;;16.08;100.00;100997.06;6025721;28;20453;-64
2023/09/29 02:51:23;;;;;;;13.43;8.03;;;;;;;16.07;100.00;100990.88;6023436;28;20121;-64
2023/09/29 02:54:19;;;;;;;11.30;7.53;;;;;;;16.13;100.00;101000.06;6029138;28;20304;-64
2023/09/29 02:57:14;;;;;;;12.57;6.93;;;;;;;16.21;100.00;101002.69;6035511;28;20034;-64
2023/09/29 03:00:15;;;;;;;21.80;7.77;;;;;;;16.21;100.00;101005.38;6016867;28;20034;-64
2023/09/29 03:03:12;;;;;;;14.48;7.15;;;;;;;16.30;100.00;101009.69;6024974;28;20069;-64
2023/09/29 03:06:07;;;;;;;11.25;6.88;;;;;;;16.35;100.00;100996.59;6021173;28;20457;-64
2023/09/29 03:09:03;;;;;;;14.17;7.20;;;;;;;16.41;100.00;100992.38;6029017;28;20037;-64
2023/09/29 03:11:59;;;;;;;10.35;6.35;;;;;;;16.49;100.00;100978.94;6028860;28;20026;-64
2023/09/29 03:14:55;;;;;;;11.10;6.40;;;;;;;16.52;100.00;100989.28;6023622;28;20035;-64
2023/09/29 03:17:52;;;;;;;11.48;6.20;;;;;;;16.61;100.00;100994.44;6026428;28;20117;-63
2023/09/29 03:20:50;;;;;;;10.43;6.13;;;;;;;16.58;100.00;100991.28;6028681;28;20117;-64
2023/09/29 03:23:46;;;;;;;8.82;5.60;;;;;;;16.42;100.00;100973.44;6026246;28;20070;-64
2023/09/29 03:26:41;;;;;;;9.93;5.47;;;;;;;16.54;100.00;100993.50;6027173;28;20095;-64
2023/09/29 03:29:37;;;;;;;11.85;6.05;;;;;;;16.61;100.00;100989.09;6028679;28;20033;-64
2023/09/29 03:32:32;;;;;;;9.30;5.43;;;;;;;16.64;100.00;100995.91;6028593;28;20027;-63
2023/09/29 03:35:27;;;;;;;10.57;5.33;;;;;;;16.57;100.00;100995.81;6026633;28;20030;-63
2023/09/29 03:38:25;;;;;;;8.98;5.30;;;;;;;16.51;100.00;100975.06;6023634;28;20625;-64
2023/09/29 03:41:23;;;;;;;11.23;5.55;;;;;;;16.57;100.00;100993.16;6028322;28;20038;-65
2023/09/29 03:44:18;;;;;;;10.07;5.22;;;;;;;16.60;100.00;100981.25;6021680;28;20068;-64
2023/09/29 03:47:14;;;;;;;7.43;5.17;;;;;;;16.69;100.00;100979.34;6027390;28;20042;-64
2023/09/29 03:50:11;;;;;;;9.13;4.97;;;;;;;16.82;100.00;100984.94;6019347;28;20122;-64
2023/09/29 03:53:06;;;;;;;9.18;5.18;;;;;;;16.80;100.00;100982.41;6025739;28;20449;-64
2023/09/29 03:56:01;;;;;;;10.60;5.03;;;;;;;16.79;100.00;100994.16;6021083;28;20041;-64
2023/09/29 03:58:58;;;;;;;10.50;5.03;;;;;;;16.69;100.00;100990.06;6018105;28;20034;-64
2023/09/29 04:01:53;;;;;;;14.02;4.80;;;;;;;16.63;100.00;100981.69;6022424;28;20035;-64
2023/09/29 04:04:49;;;;;;;8.57;4.32;;;;;;;16.71;100.00;100998.72;6027697;28;20038;-65
2023/09/29 04:07:44;;;;;;;8.17;4.90;;;;;;;16.65;100.00;100989.56;6027457;28;20045;-64
2023/09/29 04:10:39;;;;;;;10.87;4.53;;;;;;;16.66;100.00;100992.06;6026061;28;20061;-64
2023/09/29 04:13:35;;;;;;;9.17;4.37;;;;;;;16.73;100.00;101008.25;6026930;28;20064;-64
2023/09/29 04:16:30;;;;;;;8.63;4.17;;;;;;;16.66;100.00;100980.50;6027784;28;20018;-65
2023/09/29 04:19:25;;;;;;;9.20;4.97;;;;;;;16.74;100.00;100982.31;6026610;28;20697;-63
2023/09/29 04:22:24;;;;;;;9.90;4.93;;;;;;;16.87;100.00;100988.72;6023839;28;20037;-64
2023/09/29 04:25:19;;;;;;;7.53;4.63;;;;;;;16.92;100.00;100988.19;6025227;28;20167;-64
2023/09/29 04:28:14;;;;;;;8.07;4.57;;;;;;;16.98;100.00;100993.66;6027200;28;20040;-63
2023/09/29 04:31:10;;;;;;;8.00;4.60;;;;;;;17.01;100.00;100987.09;6023264;28;20026;-64
2023/09/29 04:34:05;;;;;;;11.48;4.25;;;;;;;17.05;100.00;100996.44;6027402;28;20026;-64
2023/09/29 04:37:01;;;;;;;6.90;4.10;;;;;;;17.10;100.00;100991.34;6025885;28;20414;-63
2023/09/29 04:39:57;;;;;;;8.05;4.53;;;;;;;17.13;100.00;100988.31;6027218;28;20324;-63
2023/09/29 04:42:52;;;;;;;8.02;3.97;;;;;;;17.22;100.00;100989.91;6027319;28;20661;-63
2023/09/29 04:45:48;;;;;;;8.80;3.83;;;;;;;17.26;100.00;100994.72;6026833;28;20029;-63
2023/09/29 04:48:43;;;;;;;7.63;4.40;;;;;;;17.31;100.00;101002.25;6026719;28;20041;-64
2023/09/29 04:51:38;;;;;;;9.10;3.70;;;;;;;17.32;100.00;100997.69;6027186;28;20034;-64
2023/09/29 04:54:34;;;;;;;13.67;4.90;;;;;;;17.35;100.00;100994.66;6027585;28;20357;-64
2023/09/29 04:57:29;;;;;;;5.63;3.80;;;;;;;17.34;100.00;100988.44;6031844;28;20027;-64
2023/09/29 05:00:25;;;;;;;9.77;3.93;;;;;;;17.36;100.00;100990.97;6026699;28;20066;-64
2023/09/29 05:03:20;;;;;;;7.45;3.88;;;;;;;17.24;100.00;100977.16;6026665;28;20062;-64
2023/09/29 05:06:15;;;;;;;7.30;4.07;;;;;;;17.23;100.00;100967.44;6026695;28;20030;-63
2023/09/29 05:09:11;;;;;;;7.50;4.07;;;;;;;17.31;100.00;100970.06;6025889;28;20046;-63
2023/09/29 05:12:06;;;;;;;10.30;4.40;;;;;;;17.30;100.00;100971.06;6026864;28;20273;-64
2023/09/29 05:15:02;;;;;;;7.37;4.40;;;;;;;17.35;100.00;100979.41;6020336;28;20060;-64
2023/09/29 05:17:57;;;;;;;6.68;3.53;;;;;;;17.38;100.00;100987.06;6015639;28;20425;-65
2023/09/29 05:20:53;;;;;;;6.37;3.93;;;;;;;17.31;100.00;100970.06;6026629;28;20026;-64
2023/09/29 05:23:48;;;;;;;8.60;4.40;;;;;;;17.39;100.00;100972.66;6025909;28;20058;-64
2023/09/29 05:26:43;;;;;;;6.63;3.60;;;;;;;17.52;100.00;100980.06;6025037;28;20037;-64
2023/09/29 05:29:39;;;;;;;7.50;3.77;;;;;;;17.56;100.00;100989.41;6025053;28;20042;-64
2023/09/29 05:32:35;;;;;;;6.97;4.25;;;;;;;17.58;100.00;100972.13;6025677;28;20398;-64
2023/09/29 05:35:31;;;;;;;7.47;4.23;;;;;;;17.59;100.00;100965.75;6026019;28;20041;-64
2023/09/29 05:38:26;;;;;;;8.77;4.03;;;;;;;17.51;100.00;100960.44;6024619;28;20392;-65
2023/09/29 05:41:21;;;;;;;9.57;4.03;;;;;;;17.53;100.00;100955.75;6025947;28;20057;-64
2023/09/29 05:44:16;;;;;;;7.83;3.83;;;;;;;17.56;100.00;100952.72;6025031;28;20503;-64
2023/09/29 05:47:12;;;;;;;9.07;4.30;;;;;;;17.64;100.00;100966.03;6025074;28;20030;-64
2023/09/29 05:50:07;;;;;;;8.93;4.30;;;;;;;17.51;100.00;100940.84;6025271;28;20073;-63
2023/09/29 05:53:04;;;;;;;8.32;4.32;;;;;;;17.60;100.00;100951.34;6024435;28;20034;-64
2023/09/29 05:56:08;;;;;;;8.10;3.83;;;;;;;17.66;100.00;100947.91;6022426;28;20061;-64
2023/09/29 05:59:04;;;;;;;6.97;3.63;;;;;;;17.82;100.00;100979.06;6021624;28;20040;-64
2023/09/29 06:01:59;;;;;;;6.88;3.00;;;;;;;17.80;100.00;100970.38;6025557;28;20034;-64
2023/09/29 06:04:54;;;;;;;10.30;4.23;;;;;;;17.78;100.00;100958.97;6025415;28;20041;-64
2023/09/29 06:07:50;;;;;;;9.90;3.47;;;;;;;17.84;100.00;100960.94;6024414;28;20277;-64
2023/09/29 06:10:45;;;;;;;6.37;3.50;;;;;;;17.84;100.00;100960.94;6018932;28;20042;-64
2023/09/29 06:13:42;;;;;;;6.57;3.77;;;;;;;17.89;100.00;100963.88;6019964;28;20437;-63
2023/09/29 06:16:37;;;;;;;8.10;3.88;;;;;;;17.89;100.00;100955.81;6021846;28;20053;-64
2023/09/29 06:19:32;;;;;;;10.83;4.07;;;;;;;17.99;100.00;100977.81;6022308;28;20042;-63
2023/09/29 06:22:28;;;;;;;7.30;4.27;;;;;;;18.02;100.00;100973.97;6022616;28;20637;-63
2023/09/29 06:25:23;;;;;;;11.95;4.43;;;;;;;18.19;100.00;100986.13;6018721;28;20710;-64
2023/09/29 06:28:18;;;;;;;4.95;3.45;;;;;;;18.15;100.00;100979.47;6013180;28;20114;-64
2023/09/29 06:31:14;;;;;;;10.90;4.10;;;;;;;18.00;100.00;100966.09;6022161;28;20038;-64
2023/09/29 06:34:09;;;;;;;9.23;3.90;;;;;;;18.03;100.00;100968.41;6014796;28;20062;-63
2023/09/29 06:37:04;;;;;;;6.90;3.90;;;;;;;18.06;100.00;100977.91;6020978;28;20508;-63
2023/09/29 06:40:00;;;;;;;6.60;3.73;;;;;;;18.21;100.00;100994.81;6022611;28;20121;-64
2023/09/29 06:42:55;;;;;;;8.77;3.60;;;;;;;18.33;100.00;100999.53;6021981;28;20305;-64
2023/09/29 06:45:50;;;;;;;10.87;4.70;;;;;;;18.33;100.00;100996.00;6019659;28;20070;-63
2023/09/29 06:48:46;;;;;;;8.45;3.72;;;;;;;18.22;100.00;100975.00;6011727;28;20030;-64
2023/09/29 06:51:41;;;;;;;10.10;4.07;;;;;;;18.17;100.00;100977.44;6013533;28;20041;-64
2023/09/29 06:54:36;;;;;;;6.93;4.18;;;;;;;18.16;100.00;100970.38;6021742;28;20042;-64
2023/09/29 06:57:32;;;;;;;8.63;4.10;;;;;;;18.26;100.00;101001.28;6023013;28;20460;-63
2023/09/29 07:00:27;;;;;;;7.70;3.80;;;;;;;18.30;100.00;101001.75;6018354;28;20034;-64
2023/09/29 07:03:23;;;;;;;9.82;3.72;;;;;;;18.45;100.00;101007.94;6024907;28;20069;-64
2023/09/29 07:06:22;;;;;;;6.00;3.83;;;;;;;18.49;100.00;100997.66;6024308;28;20389;-64
2023/09/29 07:09:18;;;;;;;9.43;3.28;;;;;;;18.43;100.00;100988.47;6024434;28;20038;-64
2023/09/29 07:12:13;;;;;;;7.97;3.72;;;;;;;18.47;100.00;100984.38;6024474;28;20077;-63
2023/09/29 07:15:10;;;;;;;7.33;4.00;;;;;;;18.49;100.00;100995.81;6024581;28;20034;-64
2023/09/29 07:18:05;;;;;;;9.80;4.40;;;;;;;18.53;100.00;100989.03;6024612;28;20105;-65
2023/09/29 07:21:00;;;;;;;10.63;3.90;;;;;;;18.47;100.00;100973.66;6024107;28;20030;-64
2023/09/29 07:23:56;;;;;;;8.37;4.30;;;;;;;18.50;100.00;100967.94;6026118;28;20651;-64
2023/09/29 07:26:52;;;;;;;7.43;3.97;;;;;;;18.56;100.00;100971.69;6022795;28;20872;-65
2023/09/29 07:29:47;;;;;;;7.90;4.40;;;;;;;18.63;100.00;100983.34;6028132;28;20046;-64
2023/09/29 07:32:42;;;;;;;8.63;4.40;;;;;;;18.72;100.00;100977.66;6028404;28;20270;-65
2023/09/29 07:35:38;;;;;;;6.93;3.80;;;;;;;18.77;100.00;100979.75;6028032;28;20042;-64
2023/09/29 07:38:33;;;;;;;8.93;4.18;;;;;;;18.80;100.00;100980.22;6028015;28;20120;-64
2023/09/29 07:41:29;;;;;;;10.77;4.10;;;;;;;18.94;100.00;100979.28;6027662;28;20035;-65
2023/09/29 07:44:24;;;;;;;8.67;4.20;;;;;;;18.94;100.00;100984.66;6028445;28;20110;-64
2023/09/29 07:47:19;;;;;;;9.70;4.63;;;;;;;19.09;100.00;100989.13;6027384;28;20092;-64
2023/09/29 07:50:15;;;;;;;6.77;3.80;;;;;;;19.15;100.00;100983.81;6028379;28;20038;-63
2023/09/29 07:53:11;;;;;;;7.70;4.73;;;;;;;19.17;100.00;100975.53;6028454;28;20460;-64
2023/09/29 07:56:07;;;;;;;5.60;3.40;;;;;;;19.11;100.00;100982.53;6023448;28;20270;-65
2023/09/29 07:59:02;;;;;;;7.10;4.32;;;;;;;18.98;100.00;100961.75;6024516;28;20038;-64
2023/09/29 08:01:58;;;;;;;6.28;3.80;;;;;;;18.97;100.00;100965.47;6028065;28;20026;-64
2023/09/29 08:04:53;;;;;;;7.10;3.88;;;;;;;19.05;100.00;100982.50;6027956;28;20490;-64
2023/09/29 08:07:49;;;;;;;7.23;3.70;;;;;;;19.01;100.00;100982.88;6026849;28;20038;-64
2023/09/29 08:10:44;;;;;;;8.83;4.03;;;;;;;19.13;100.00;100991.25;6027409;28;20133;-64
2023/09/29 08:13:39;;;;;;;7.45;3.50;;;;;;;18.98;100.00;100971.66;6027831;28;20548;-64
2023/09/29 08:16:36;;;;;;;8.63;3.57;;;;;;;19.26;100.00;101001.28;6027247;28;20121;-63
2023/09/29 08:19:33;;;;;;;7.38;3.47;;;;;;;19.23;100.00;100986.34;6027782;28;20034;-63
2023/09/29 08:22:29;;;;;;;7.85;3.38;;;;;;;19.14;100.00;100998.28;6027261;28;20073;-65
2023/09/29 08:25:24;;;;;;;8.17;3.70;;;;;;;19.28;100.00;101015.34;6027310;28;20027;-64
2023/09/29 08:28:19;;;;;;;7.10;3.85;;;;;;;19.15;100.00;101002.63;6026944;28;20026;-64
2023/09/29 08:31:15;;;;;;;8.77;3.70;;;;;;;19.03;100.00;100991.56;6027197;28;20092;-63
2023/09/29 08:34:11;;;;;;;8.57;4.50;;;;;;;19.06;100.00;101002.94;6028000;28;20269;-64
2023/09/29 08:37:06;;;;;;;7.60;4.43;;;;;;;19.10;100.00;101004.25;6025344;28;20049;-64
2023/09/29 08:40:02;;;;;;;7.63;4.10;;;;;;;18.96;100.00;100995.22;6026466;28;20045;-64
2023/09/29 08:42:57;;;;;;;7.65;4.20;;;;;;;18.86;100.00;100981.31;6026945;28;20363;-64
2023/09/29 08:45:56;;;;;;;10.33;4.40;;;;;;;18.92;100.00;100993.94;6024930;28;20038;-64
2023/09/29 08:48:52;;;;;;;8.88;4.43;;;;;;;18.97;100.00;100986.97;6026109;28;20034;-64
2023/09/29 08:51:48;;;;;;;5.65;3.60;;;;;;;19.04;100.00;100989.72;6029470;28;20038;-64
2023/09/29 08:54:44;;;;;;;7.63;4.13;;;;;;;19.16;100.00;100979.28;6028230;28;20040;-64
2023/09/29 08:57:46;;;;;;;8.85;3.75;;;;;;;19.26;100.00;100990.50;6025712;28;20044;-63
2023/09/29 09:00:42;;;;;;;8.45;4.72;;;;;;;19.31;100.00;100969.22;6026624;28;20402;-63
2023/09/29 09:03:37;;;;;;;8.20;4.60;;;;;;;19.51;100.00;100989.06;6026408;28;20038;-64
2023/09/29 09:06:33;;;;;;;12.38;4.68;;;;;;;19.71;100.00;100981.94;6026069;28;20297;-65
2023/09/29 09:09:28;;;;;;;11.68;4.65;;;;;;;19.74;100.00;100965.38;6026402;28;20057;-64
2023/09/29 09:12:33;;;;;;;8.23;4.45;;;;;;;19.76;100.00;100973.28;6026785;28;20050;-64
2023/09/29 09:15:28;;;;;;;7.90;4.28;;;;;;;19.86;100.00;100977.25;6025885;28;20064;-64
2023/09/29 09:18:27;;;;;;;8.98;4.28;;;;;;;20.00;100.00;100973.56;6025942;28;20417;-64
2023/09/29 09:21:34;;;;;;;8.15;3.70;;;;;;;19.90;100.00;100965.06;6026396;28;20088;-65
2023/09/29 09:24:29;;;;;;;7.95;3.50;;;;;;;20.10;100.00;100971.34;6026257;28;20049;-64
2023/09/29 09:27:25;;;;;;;7.73;3.40;;;;;;;20.00;100.00;100962.81;6025443;28;20054;-64
2023/09/29 09:30:22;;;;;;;9.03;4.20;;;;;;;20.09;100.00;100967.00;6026157;28;20034;-64
2023/09/29 09:33:21;;;;;;;7.93;4.07;;;;;;;20.24;100.00;100974.97;6025932;28;20420;-65
2023/09/29 09:36:16;;;;;;;9.43;3.85;;;;;;;20.24;100.00;100957.94;6025454;28;20176;-65
2023/09/29 09:39:13;;;;;;;8.57;3.97;;;;;;;20.54;100.00;100949.34;6025713;28;20034;-64
2023/09/29 09:42:09;;;;;;;15.38;5.13;;;;;;;20.61;100.00;100957.41;6025153;28;20026;-64
2023/09/29 09:45:04;;;;;;;6.95;4.57;;;;;;;20.39;100.00;100961.31;6024068;28;20436;-64
2023/09/29 09:48:01;;;;;;;8.43;4.50;;;;;;;20.61;100.00;100952.84;6023913;28;20030;-64
2023/09/29 09:50:58;;;;;;;10.40;4.38;;;;;;;20.89;98.82;100958.06;6020169;28;20030;-65
2023/09/29 09:53:54;;;;;;;11.38;4.72;;;;;;;20.89;97.35;100947.28;6024251;28;20465;-65
2023/09/29 09:57:08;;;;;;;10.30;3.88;;;;;;;21.01;96.76;100931.31;6027047;28;20363;-64
2023/09/29 10:00:10;;;;;;;9.15;4.03;;;;;;;20.79;97.55;100946.84;6022158;28;20037;-64
2023/09/29 10:03:11;;;;;;;9.30;3.85;;;;;;;20.93;96.35;100951.22;6021876;28;20039;-64
2023/09/29 10:06:07;;;;;;;7.40;4.22;;;;;;;20.91;96.12;100947.91;6021330;28;20030;-64
2023/09/29 10:09:10;;;;;;;7.18;4.03;;;;;;;20.91;96.25;100945.19;6024825;28;20042;-64
2023/09/29 10:12:06;;;;;;;6.10;3.15;;;;;;;20.95;95.35;100930.28;6026069;28;20026;-65
2023/09/29 10:15:03;;;;;;;9.27;4.13;;;;;;;20.94;96.06;100930.47;6025091;28;20034;-65
2023/09/29 10:17:59;;;;;;;6.55;3.13;;;;;;;21.46;93.87;100916.09;6024643;28;20038;-65
2023/09/29 10:21:05;;;;;;;7.80;3.67;;;;;;;21.43;92.55;100916.53;6024961;28;20477;-65
2023/09/29 10:24:05;;;;;;;6.88;4.15;;;;;;;21.65;91.71;100912.53;6025170;28;20042;-63
2023/09/29 10:27:04;;;;;;;;;;;;;;;21.93;88.80;100926.56;6030361;28;20041;-64
2023/09/29 10:30:16;;;;;;;6.25;3.20;;;;;;;21.90;88.43;100929.69;6024447;28;19918;-64
2023/09/29 10:33:11;;;;;;;6.32;3.22;;;;;;;21.93;88.13;100934.66;6023476;28;20058;-64
2023/09/29 10:36:09;;;;;;;5.80;3.38;;;;;;;21.69;88.82;100928.06;6025010;28;20034;-63
2023/09/29 10:39:04;;;;;;;5.65;3.13;;;;;;;21.74;88.21;100911.25;6024616;28;20114;-64
2023/09/29 10:42:04;;;;;;;6.90;2.87;;;;;;;21.78;88.60;100901.66;6025223;28;20058;-64
2023/09/29 10:44:59;;;;;;;;;;;;;;;21.71;88.96;100914.38;6024748;28;20041;-64
2023/09/29 10:48:00;;;;;;;4.90;2.43;;;;;;;22.16;86.71;100907.94;6024701;28;19926;-65
2023/09/29 10:50:56;;;;;;;4.75;2.70;;;;;;;22.02;87.32;100905.50;6023070;28;20042;-64
2023/09/29 10:53:51;;;;;;;7.83;2.80;;;;;;;22.07;86.16;100913.81;6024850;28;20042;-64
2023/09/29 10:56:49;;;;;;;6.97;2.75;;;;;;;22.09;86.04;100906.31;6026942;28;20045;-65
2023/09/29 10:59:48;;;;;;;5.75;2.83;;;;;;;22.54;83.32;100914.13;6037474;28;20498;-64
2023/09/29 11:02:45;;;;;;;6.57;3.33;;;;;;;22.44;83.39;100908.41;6026286;28;20066;-65
2023/09/29 11:05:54;;;;;;;5.75;3.00;;;;;;;22.23;83.85;100897.09;6029051;28;20406;-64
2023/09/29 11:08:54;;;;;;;8.07;2.90;;;;;;;22.37;83.25;100894.06;6028842;28;20118;-64
2023/09/29 11:11:51;;;;;;;6.45;2.92;;;;;;;22.39;82.19;100891.19;6028940;28;20041;-65
2023/09/29 11:14:46;;;;;;;5.57;3.20;;;;;;;22.46;82.69;100897.34;6029166;28;20046;-64
2023/09/29 11:17:46;;;;;;;6.03;3.10;;;;;;;22.67;82.12;100896.16;6028432;28;20541;-65
2023/09/29 11:20:51;;;;;;;4.50;2.47;;;;;;;22.95;79.65;100874.91;6029068;28;20478;-65
2023/09/29 11:23:47;;;;;;;7.53;2.78;;;;;;;23.15;78.69;100886.38;6028419;28;20478;-64
2023/09/29 11:26:46;;;;;;;4.22;2.80;;;;;;;23.44;77.17;100877.53;6027791;28;20470;-65
2023/09/29 11:29:43;;;;;;;8.90;3.03;;;;;;;23.48;76.38;100897.69;6028151;28;20470;-64
2023/09/29 11:32:38;;;;;;;8.10;3.20;;;;;;;23.30;77.31;100873.31;6028930;28;20038;-64
2023/09/29 11:35:33;;;;;;;6.17;2.80;;;;;;;23.63;77.10;100881.91;6028225;28;20492;-65
2023/09/29 11:38:29;;;;;;;5.30;2.73;;;;;;;23.23;77.70;100861.72;6044763;28;20030;-64
2023/09/29 11:41:24;;;;;;;6.27;3.00;;;;;;;23.09;79.40;100866.47;6026208;28;20173;-64
2023/09/29 11:44:19;;;;;;;7.53;3.17;;;;;;;23.00;77.91;100856.13;6028838;28;20362;-65
2023/09/29 11:47:15;;;;;;;5.50;3.00;;;;;;;23.31;77.39;100850.59;6027064;28;20292;-65
2023/09/29 11:50:11;;;;;;;6.75;2.88;;;;;;;23.86;75.31;100862.22;6028752;28;20492;-65
2023/09/29 11:53:07;;;;;;;4.95;2.70;;;;;;;23.59;75.34;100839.25;6027852;28;20037;-65
2023/09/29 11:56:03;;;;;;;5.95;2.95;;;;;;;23.81;75.08;100839.59;6030517;28;20101;-64
2023/09/29 11:58:58;;;;;;;9.32;2.58;;;;;;;23.87;74.87;100860.31;6028166;28;20028;-65
2023/09/29 12:01:54;;;;;;;4.93;2.60;;;;;;;23.68;76.29;100856.84;6027803;28;20101;-65
2023/09/29 12:04:51;;;;;;;5.75;2.53;;;;;;;24.02;75.68;100845.34;6028036;28;20034;-64
2023/09/29 12:07:46;;;;;;;5.35;2.67;;;;;;;24.00;75.64;100833.88;6027495;28;20101;-65
2023/09/29 12:10:42;;;;;;;6.67;2.80;;;;;;;24.53;73.19;100842.06;6025321;28;20049;-65
2023/09/29 12:13:39;;;;;;;6.07;2.67;;;;;;;25.02;71.58;100823.69;6027955;28;20062;-64
2023/09/29 12:16:34;;;;;;;6.50;2.90;;;;;;;24.58;70.65;100831.31;6026727;28;20098;-64
2023/09/29 12:19:30;;;;;;;4.87;2.30;;;;;;;25.51;69.47;100822.31;6027719;28;20038;-65
2023/09/29 12:22:25;;;;;;;9.07;2.97;;;;;;;25.59;66.45;100813.78;6027267;28;20056;-65
2023/09/29 12:25:21;;;;;;;4.80;2.75;;;;;;;25.93;64.09;100810.88;6027598;28;20687;-65
2023/09/29 12:28:16;;;;;;;7.50;3.00;;;;;;;26.46;63.95;100818.66;6024147;28;20034;-65
2023/09/29 12:31:16;;;;;;;4.93;2.60;;;;;;;26.27;61.68;100805.53;6027261;28;20090;-65
2023/09/29 12:34:11;;;;;;;;;;;;;;;25.78;64.18;100807.91;6027412;28;20434;-65
2023/09/29 12:37:07;;;;;;;5.87;2.50;;;;;;;25.42;65.87;100813.66;6026318;28;19925;-64
2023/09/29 12:40:04;;;;;;;6.47;3.35;;;;;;;25.18;66.60;100806.66;6026281;28;20041;-65
2023/09/29 12:43:00;;;;;;;4.85;2.78;;;;;;;24.90;68.43;100793.00;6021954;28;20122;-65
2023/09/29 12:45:55;;;;;;;6.30;2.83;;;;;;;24.96;68.01;100808.34;6026427;28;20035;-64
2023/09/29 12:48:51;;;;;;;6.22;3.25;;;;;;;24.95;68.11;100802.06;6026664;28;20064;-64
2023/09/29 12:51:46;;;;;;;6.57;2.88;;;;;;;25.22;68.74;100802.41;6023684;28;20409;-65
2023/09/29 12:54:42;;;;;;;5.30;2.40;;;;;;;25.60;68.37;100799.13;6029908;28;20057;-64
2023/09/29 12:57:38;;;;;;;5.03;2.85;;;;;;;25.23;67.85;100790.47;6026285;28;20103;-65
2023/09/29 13:00:34;;;;;;;4.25;2.35;;;;;;;25.02;68.70;100796.53;6026494;28;20034;-65
2023/09/29 13:03:30;;;;;;;5.05;2.45;;;;;;;24.73;69.68;100803.75;6026678;28;20500;-65
2023/09/29 13:06:25;;;;;;;5.75;2.58;;;;;;;24.50;71.40;100804.56;6021813;28;20620;-65
2023/09/29 13:09:20;;;;;;;6.17;2.87;;;;;;;24.45;71.81;100801.72;6026454;28;20038;-65
2023/09/29 13:12:17;;;;;;;7.38;3.05;;;;;;;24.47;71.41;100782.50;6026609;28;20478;-65
2023/09/29 13:15:14;;;;;;;6.22;2.50;;;;;;;24.38;72.91;100809.13;6025988;28;20042;-66
2023/09/29 13:18:10;;;;;;;4.38;2.60;;;;;;;24.04;72.88;100799.03;6025972;28;20095;-65
2023/09/29 13:21:05;;;;;;;7.20;2.80;;;;;;;23.90;73.54;100808.41;6026349;28;20045;-65
2023/09/29 13:24:00;;;;;;;7.63;2.90;;;;;;;23.72;74.45;100805.75;6026363;28;20034;-64
2023/09/29 13:26:57;;;;;;;6.10;2.72;;;;;;;23.85;75.09;100794.72;6025278;28;20428;-64
2023/09/29 13:29:52;;;;;;;4.63;2.45;;;;;;;23.95;74.48;100792.28;6025993;28;20401;-64